NCAR-RAP Real-Time Weather Data

Output produced by METARs form (16 August 2018  19:23 UTC)
found at http://weather.rap.ucar.edu/surface/
 
 
RJCC 161900Z 34019KT 9999 -SHRA FEW006 SCT008 BKN010 13/12 Q1003 RMK 1ST006 4ST008 6ST010 A2964